UAL117 KLAX-NTAA
Flight info
| Callsign | UAL117 |
|---|---|
| Flight time | N/A |
| Altitude | 38000 |
| Route | SUMMR2 FICKY DCT WEDES DCT AIBBI DCT 24N130W 20N132W 15N134W/N0488F400 10N136W 0330N13856W 01N140W DCT RUTAK DCT 10S145W 15S148W DCT ASOKI ASOKI4K |
| Aircraft | B789/H-SDE1E2E3FGHIJ2J3J4J5M1RWXY/LB1D1 |
Departure
| Time | 2026-05-07 23:36 |
|---|---|
| Airport | Los Angeles International Airport (KLAX) |
Arrival
| Time | N/A |
|---|---|
| Airport | Fa'a'ā International Airport (NTAA) |
| Time | Latitude | Longitude | Altitude | Speed | Heading |
|---|---|---|---|---|---|
| 2026-05-07 23:16 | 33.94011 | -118.40141 | 117 ft | 0 kts | 312° |
| 2026-05-07 23:27 | 33.93997 | -118.40122 | 116 ft | 2 kts | 312° |
| 2026-05-07 23:27 | 33.93986 | -118.40109 | 116 ft | 2 kts | 335° |
| 2026-05-07 23:27 | 33.93971 | -118.40106 | 116 ft | 2 kts | 7° |
| 2026-05-07 23:28 | 33.93957 | -118.40112 | 116 ft | 2 kts | 37° |
| 2026-05-07 23:28 | 33.93948 | -118.40125 | 116 ft | 2 kts | 67° |
| 2026-05-07 23:28 | 33.93945 | -118.40135 | 117 ft | 1 kts | 82° |
| 2026-05-07 23:28 | 33.93945 | -118.40138 | 117 ft | 0 kts | 81° |
| 2026-05-07 23:31 | 33.93954 | -118.40069 | 116 ft | 23 kts | 81° |
| 2026-05-07 23:31 | 33.93970 | -118.39922 | 114 ft | 15 kts | 83° |
| 2026-05-07 23:31 | 33.93989 | -118.39785 | 112 ft | 17 kts | 85° |
| 2026-05-07 23:32 | 33.94001 | -118.39629 | 110 ft | 19 kts | 84° |
| 2026-05-07 23:32 | 33.94018 | -118.39454 | 108 ft | 21 kts | 82° |
| 2026-05-07 23:32 | 33.94037 | -118.39265 | 106 ft | 23 kts | 84° |
| 2026-05-07 23:32 | 33.94054 | -118.39079 | 104 ft | 19 kts | 89° |
| 2026-05-07 23:33 | 33.94065 | -118.38912 | 103 ft | 20 kts | 83° |
| 2026-05-07 23:33 | 33.94084 | -118.38733 | 102 ft | 22 kts | 83° |
| 2026-05-07 23:33 | 33.94101 | -118.38563 | 101 ft | 16 kts | 84° |
| 2026-05-07 23:33 | 33.94113 | -118.38417 | 101 ft | 17 kts | 84° |
| 2026-05-07 23:34 | 33.94073 | -118.38331 | 100 ft | 11 kts | 130° |
| 2026-05-07 23:34 | 33.94060 | -118.38228 | 100 ft | 15 kts | 83° |
| 2026-05-07 23:34 | 33.94074 | -118.38088 | 99 ft | 12 kts | 84° |
| 2026-05-07 23:34 | 33.94073 | -118.38038 | 99 ft | 0 kts | 110° |
| 2026-05-07 23:35 | 33.94071 | -118.38034 | 99 ft | 2 kts | 116° |
| 2026-05-07 23:35 | 33.94041 | -118.38008 | 99 ft | 8 kts | 168° |
| 2026-05-07 23:35 | 33.93985 | -118.38062 | 99 ft | 14 kts | 253° |
| 2026-05-07 23:36 | 33.93949 | -118.38371 | 101 ft | 70 kts | 263° |
| 2026-05-07 23:36 | 33.93858 | -118.39267 | 106 ft | 140 kts | 263° |
| 2026-05-07 23:36 | 33.93716 | -118.40668 | 257 ft | 188 kts | 263° |
| 2026-05-07 23:36 | 33.93560 | -118.42149 | 995 ft | 193 kts | 262° |
| 2026-05-07 23:37 | 33.93359 | -118.43861 | 1560 ft | 215 kts | 262° |
| 2026-05-07 23:37 | 33.93187 | -118.45676 | 2437 ft | 220 kts | 264° |